sensor_id;sensor_type;location;lat;lon;timestamp;temperature;humidity
9973;DHT22;5027;53.560;10.062;2024-03-08T00:02:15;9.60;97.50
9973;DHT22;5027;53.560;10.062;2024-03-08T00:04:41;9.60;97.60
9973;DHT22;5027;53.560;10.062;2024-03-08T00:07:08;9.60;97.60
9973;DHT22;5027;53.560;10.062;2024-03-08T00:09:35;9.60;97.50
9973;DHT22;5027;53.560;10.062;2024-03-08T00:12:03;9.50;97.70
9973;DHT22;5027;53.560;10.062;2024-03-08T00:14:29;9.50;97.70
9973;DHT22;5027;53.560;10.062;2024-03-08T00:16:56;9.50;97.70
9973;DHT22;5027;53.560;10.062;2024-03-08T00:19:23;9.50;97.60
9973;DHT22;5027;53.560;10.062;2024-03-08T00:21:50;9.50;97.80
9973;DHT22;5027;53.560;10.062;2024-03-08T00:24:16;9.50;97.70
9973;DHT22;5027;53.560;10.062;2024-03-08T00:26:43;9.50;97.80
9973;DHT22;5027;53.560;10.062;2024-03-08T00:29:10;9.50;97.60
9973;DHT22;5027;53.560;10.062;2024-03-08T00:31:37;9.40;97.60
9973;DHT22;5027;53.560;10.062;2024-03-08T00:34:03;9.40;97.70
9973;DHT22;5027;53.560;10.062;2024-03-08T00:36:30;9.40;97.70
9973;DHT22;5027;53.560;10.062;2024-03-08T00:38:57;9.40;97.60
9973;DHT22;5027;53.560;10.062;2024-03-08T00:41:23;9.40;97.70
9973;DHT22;5027;53.560;10.062;2024-03-08T00:43:53;9.40;97.70
9973;DHT22;5027;53.560;10.062;2024-03-08T00:46:19;9.40;97.80
9973;DHT22;5027;53.560;10.062;2024-03-08T00:48:46;9.40;97.70
9973;DHT22;5027;53.560;10.062;2024-03-08T00:51:14;9.30;97.90
9973;DHT22;5027;53.560;10.062;2024-03-08T00:53:42;9.30;97.90
9973;DHT22;5027;53.560;10.062;2024-03-08T00:56:09;9.30;97.90
9973;DHT22;5027;53.560;10.062;2024-03-08T00:58:39;9.30;97.70
9973;DHT22;5027;53.560;10.062;2024-03-08T01:01:06;9.30;97.80
9973;DHT22;5027;53.560;10.062;2024-03-08T01:03:33;9.30;98.00
9973;DHT22;5027;53.560;10.062;2024-03-08T01:06:01;9.20;97.80
9973;DHT22;5027;53.560;10.062;2024-03-08T01:08:28;9.20;97.80
9973;DHT22;5027;53.560;10.062;2024-03-08T01:10:54;9.20;98.00
9973;DHT22;5027;53.560;10.062;2024-03-08T01:13:21;9.20;97.90
9973;DHT22;5027;53.560;10.062;2024-03-08T01:15:48;9.10;97.90
9973;DHT22;5027;53.560;10.062;2024-03-08T01:18:14;9.20;97.90
9973;DHT22;5027;53.560;10.062;2024-03-08T01:20:41;9.20;98.00
9973;DHT22;5027;53.560;10.062;2024-03-08T01:23:08;9.10;97.90
9973;DHT22;5027;53.560;10.062;2024-03-08T01:25:35;9.10;98.00
9973;DHT22;5027;53.560;10.062;2024-03-08T01:28:02;9.10;98.00
9973;DHT22;5027;53.560;10.062;2024-03-08T01:30:29;9.10;98.00
9973;DHT22;5027;53.560;10.062;2024-03-08T01:32:55;9.10;98.00
9973;DHT22;5027;53.560;10.062;2024-03-08T01:35:23;9.10;98.00
9973;DHT22;5027;53.560;10.062;2024-03-08T01:37:50;9.00;98.10
9973;DHT22;5027;53.560;10.062;2024-03-08T01:40:17;9.00;98.00
9973;DHT22;5027;53.560;10.062;2024-03-08T01:42:43;9.00;98.00
9973;DHT22;5027;53.560;10.062;2024-03-08T01:45:11;9.00;97.90
9973;DHT22;5027;53.560;10.062;2024-03-08T01:47:38;9.00;98.00
9973;DHT22;5027;53.560;10.062;2024-03-08T01:50:06;9.00;98.10
9973;DHT22;5027;53.560;10.062;2024-03-08T01:52:34;9.00;98.00
9973;DHT22;5027;53.560;10.062;2024-03-08T01:55:03;9.00;98.10
9973;DHT22;5027;53.560;10.062;2024-03-08T01:57:33;9.00;98.10
9973;DHT22;5027;53.560;10.062;2024-03-08T02:00:01;9.00;98.10
9973;DHT22;5027;53.560;10.062;2024-03-08T02:02:35;8.90;98.10
9973;DHT22;5027;53.560;10.062;2024-03-08T02:05:05;8.90;98.10
9973;DHT22;5027;53.560;10.062;2024-03-08T02:07:31;8.90;98.00
9973;DHT22;5027;53.560;10.062;2024-03-08T02:09:58;8.90;98.10
9973;DHT22;5027;53.560;10.062;2024-03-08T02:12:25;8.90;98.10
9973;DHT22;5027;53.560;10.062;2024-03-08T02:14:53;8.90;98.10
9973;DHT22;5027;53.560;10.062;2024-03-08T02:17:20;8.90;98.10
9973;DHT22;5027;53.560;10.062;2024-03-08T02:19:47;8.90;98.30
9973;DHT22;5027;53.560;10.062;2024-03-08T02:22:14;8.80;98.30
9973;DHT22;5027;53.560;10.062;2024-03-08T02:24:41;8.80;98.30
9973;DHT22;5027;53.560;10.062;2024-03-08T02:27:07;8.80;98.30
9973;DHT22;5027;53.560;10.062;2024-03-08T02:29:35;8.80;98.20
9973;DHT22;5027;53.560;10.062;2024-03-08T02:32:02;8.80;98.30
9973;DHT22;5027;53.560;10.062;2024-03-08T02:34:29;8.80;98.30
9973;DHT22;5027;53.560;10.062;2024-03-08T02:36:58;8.80;98.30
9973;DHT22;5027;53.560;10.062;2024-03-08T02:39:25;8.80;98.30
9973;DHT22;5027;53.560;10.062;2024-03-08T02:41:52;8.70;98.30
9973;DHT22;5027;53.560;10.062;2024-03-08T02:44:19;8.70;98.20
9973;DHT22;5027;53.560;10.062;2024-03-08T02:46:48;8.70;98.30
9973;DHT22;5027;53.560;10.062;2024-03-08T02:49:15;8.70;98.30
9973;DHT22;5027;53.560;10.062;2024-03-08T02:51:42;8.70;98.20
9973;DHT22;5027;53.560;10.062;2024-03-08T02:54:09;8.70;98.20
9973;DHT22;5027;53.560;10.062;2024-03-08T02:56:36;8.70;98.20
9973;DHT22;5027;53.560;10.062;2024-03-08T02:59:03;8.70;98.20
9973;DHT22;5027;53.560;10.062;2024-03-08T03:01:30;8.70;98.20
9973;DHT22;5027;53.560;10.062;2024-03-08T03:03:58;8.70;98.20
9973;DHT22;5027;53.560;10.062;2024-03-08T03:06:25;8.70;98.20
9973;DHT22;5027;53.560;10.062;2024-03-08T03:08:52;8.60;98.30
9973;DHT22;5027;53.560;10.062;2024-03-08T03:11:19;8.60;98.20
9973;DHT22;5027;53.560;10.062;2024-03-08T03:13:46;8.70;98.20
9973;DHT22;5027;53.560;10.062;2024-03-08T03:16:19;8.60;98.20
9973;DHT22;5027;53.560;10.062;2024-03-08T03:18:49;8.70;98.30
9973;DHT22;5027;53.560;10.062;2024-03-08T03:21:16;8.60;98.30
9973;DHT22;5027;53.560;10.062;2024-03-08T03:23:44;8.60;98.30
9973;DHT22;5027;53.560;10.062;2024-03-08T03:26:10;8.60;98.40
9973;DHT22;5027;53.560;10.062;2024-03-08T03:28:39;8.50;98.50
9973;DHT22;5027;53.560;10.062;2024-03-08T03:31:09;8.50;98.40
9973;DHT22;5027;53.560;10.062;2024-03-08T03:33:41;8.60;98.40
9973;DHT22;5027;53.560;10.062;2024-03-08T03:36:08;8.50;98.70
9973;DHT22;5027;53.560;10.062;2024-03-08T03:38:36;8.50;98.40
9973;DHT22;5027;53.560;10.062;2024-03-08T03:41:03;8.50;98.30
9973;DHT22;5027;53.560;10.062;2024-03-08T03:43:37;8.50;98.30
9973;DHT22;5027;53.560;10.062;2024-03-08T03:46:08;8.50;98.40
9973;DHT22;5027;53.560;10.062;2024-03-08T03:48:37;8.40;98.30
9973;DHT22;5027;53.560;10.062;2024-03-08T03:51:04;8.40;98.50
9973;DHT22;5027;53.560;10.062;2024-03-08T03:53:31;8.40;98.40
9973;DHT22;5027;53.560;10.062;2024-03-08T03:55:57;8.50;98.40
9973;DHT22;5027;53.560;10.062;2024-03-08T03:58:26;8.50;98.50
9973;DHT22;5027;53.560;10.062;2024-03-08T04:00:53;8.40;98.60
9973;DHT22;5027;53.560;10.062;2024-03-08T04:03:20;8.40;98.40
9973;DHT22;5027;53.560;10.062;2024-03-08T04:05:46;8.40;98.40
9973;DHT22;5027;53.560;10.062;2024-03-08T04:08:13;8.40;98.50
9973;DHT22;5027;53.560;10.062;2024-03-08T04:10:40;8.30;98.40
9973;DHT22;5027;53.560;10.062;2024-03-08T04:13:08;8.40;98.60
9973;DHT22;5027;53.560;10.062;2024-03-08T04:15:36;8.40;98.60
9973;DHT22;5027;53.560;10.062;2024-03-08T04:18:04;8.30;98.50
9973;DHT22;5027;53.560;10.062;2024-03-08T04:20:31;8.40;98.50
9973;DHT22;5027;53.560;10.062;2024-03-08T04:22:58;8.30;98.60
9973;DHT22;5027;53.560;10.062;2024-03-08T04:25:24;8.20;98.60
9973;DHT22;5027;53.560;10.062;2024-03-08T04:27:51;8.20;98.70
9973;DHT22;5027;53.560;10.062;2024-03-08T04:30:19;8.20;98.70
9973;DHT22;5027;53.560;10.062;2024-03-08T04:32:47;8.20;98.60
9973;DHT22;5027;53.560;10.062;2024-03-08T04:35:14;8.30;98.50
9973;DHT22;5027;53.560;10.062;2024-03-08T04:37:42;8.30;98.40
9973;DHT22;5027;53.560;10.062;2024-03-08T04:40:08;8.20;98.50
9973;DHT22;5027;53.560;10.062;2024-03-08T04:42:37;8.20;98.50
9973;DHT22;5027;53.560;10.062;2024-03-08T04:45:05;8.20;98.40
9973;DHT22;5027;53.560;10.062;2024-03-08T04:47:34;8.20;98.50
9973;DHT22;5027;53.560;10.062;2024-03-08T04:50:04;8.20;98.50
9973;DHT22;5027;53.560;10.062;2024-03-08T04:52:31;8.20;98.60
9973;DHT22;5027;53.560;10.062;2024-03-08T04:54:57;8.10;98.70
9973;DHT22;5027;53.560;10.062;2024-03-08T04:57:24;8.20;98.70
9973;DHT22;5027;53.560;10.062;2024-03-08T04:59:52;8.20;98.50
9973;DHT22;5027;53.560;10.062;2024-03-08T05:02:19;8.20;98.50
9973;DHT22;5027;53.560;10.062;2024-03-08T05:04:45;8.20;98.70
9973;DHT22;5027;53.560;10.062;2024-03-08T05:07:13;8.00;98.70
9973;DHT22;5027;53.560;10.062;2024-03-08T05:09:40;8.10;98.70
9973;DHT22;5027;53.560;10.062;2024-03-08T05:12:07;8.10;98.60
9973;DHT22;5027;53.560;10.062;2024-03-08T05:14:34;8.20;98.70
9973;DHT22;5027;53.560;10.062;2024-03-08T05:17:01;8.20;98.50
9973;DHT22;5027;53.560;10.062;2024-03-08T05:19:28;8.20;98.60
9973;DHT22;5027;53.560;10.062;2024-03-08T05:22:00;8.20;98.60
9973;DHT22;5027;53.560;10.062;2024-03-08T05:24:27;8.10;98.70
9973;DHT22;5027;53.560;10.062;2024-03-08T05:26:54;8.20;98.70
9973;DHT22;5027;53.560;10.062;2024-03-08T05:29:20;8.10;98.60
9973;DHT22;5027;53.560;10.062;2024-03-08T05:31:49;8.10;98.70
9973;DHT22;5027;53.560;10.062;2024-03-08T05:34:16;8.10;98.70
9973;DHT22;5027;53.560;10.062;2024-03-08T05:36:43;8.10;98.70
9973;DHT22;5027;53.560;10.062;2024-03-08T05:39:12;8.20;98.60
9973;DHT22;5027;53.560;10.062;2024-03-08T05:41:40;8.10;98.60
9973;DHT22;5027;53.560;10.062;2024-03-08T05:44:08;8.10;98.60
9973;DHT22;5027;53.560;10.062;2024-03-08T05:46:35;8.10;98.60
9973;DHT22;5027;53.560;10.062;2024-03-08T05:49:06;8.10;98.60
9973;DHT22;5027;53.560;10.062;2024-03-08T05:51:35;8.10;98.50
9973;DHT22;5027;53.560;10.062;2024-03-08T05:54:02;8.10;98.60
9973;DHT22;5027;53.560;10.062;2024-03-08T05:56:30;8.10;98.70
9973;DHT22;5027;53.560;10.062;2024-03-08T05:58:57;8.10;98.70
9973;DHT22;5027;53.560;10.062;2024-03-08T06:01:25;8.10;98.50
9973;DHT22;5027;53.560;10.062;2024-03-08T06:03:56;8.10;98.70
9973;DHT22;5027;53.560;10.062;2024-03-08T06:06:24;8.10;98.60
9973;DHT22;5027;53.560;10.062;2024-03-08T06:08:51;8.10;98.70
9973;DHT22;5027;53.560;10.062;2024-03-08T06:11:19;8.10;98.60
9973;DHT22;5027;53.560;10.062;2024-03-08T06:13:46;8.10;98.50
9973;DHT22;5027;53.560;10.062;2024-03-08T06:16:13;8.00;98.70
9973;DHT22;5027;53.560;10.062;2024-03-08T06:18:39;7.90;98.90
9973;DHT22;5027;53.560;10.062;2024-03-08T06:21:08;7.90;99.00
9973;DHT22;5027;53.560;10.062;2024-03-08T06:23:39;8.00;99.00
9973;DHT22;5027;53.560;10.062;2024-03-08T06:26:09;8.00;98.70
9973;DHT22;5027;53.560;10.062;2024-03-08T06:28:35;8.10;98.70
9973;DHT22;5027;53.560;10.062;2024-03-08T06:31:02;8.20;98.70
9973;DHT22;5027;53.560;10.062;2024-03-08T06:33:30;8.20;98.60
9973;DHT22;5027;53.560;10.062;2024-03-08T06:35:59;8.10;98.60
9973;DHT22;5027;53.560;10.062;2024-03-08T06:38:25;8.20;98.50
9973;DHT22;5027;53.560;10.062;2024-03-08T06:40:53;8.20;98.60
9973;DHT22;5027;53.560;10.062;2024-03-08T06:43:21;8.20;98.60
9973;DHT22;5027;53.560;10.062;2024-03-08T06:45:48;8.20;98.50
9973;DHT22;5027;53.560;10.062;2024-03-08T06:48:16;8.20;98.40
9973;DHT22;5027;53.560;10.062;2024-03-08T06:50:44;8.20;98.50
9973;DHT22;5027;53.560;10.062;2024-03-08T06:53:12;8.20;98.50
9973;DHT22;5027;53.560;10.062;2024-03-08T06:55:40;8.20;98.50
9973;DHT22;5027;53.560;10.062;2024-03-08T06:58:07;8.10;98.70
9973;DHT22;5027;53.560;10.062;2024-03-08T07:00:34;8.10;98.50
9973;DHT22;5027;53.560;10.062;2024-03-08T07:03:00;8.10;98.70
9973;DHT22;5027;53.560;10.062;2024-03-08T07:05:30;8.10;98.70
9973;DHT22;5027;53.560;10.062;2024-03-08T07:07:59;8.20;98.50
9973;DHT22;5027;53.560;10.062;2024-03-08T07:10:25;8.20;98.50
9973;DHT22;5027;53.560;10.062;2024-03-08T07:12:52;8.20;98.40
9973;DHT22;5027;53.560;10.062;2024-03-08T07:15:19;8.20;98.30
9973;DHT22;5027;53.560;10.062;2024-03-08T07:17:47;8.20;98.30
9973;DHT22;5027;53.560;10.062;2024-03-08T07:20:14;8.30;98.20
9973;DHT22;5027;53.560;10.062;2024-03-08T07:22:46;8.40;98.30
9973;DHT22;5027;53.560;10.062;2024-03-08T07:25:19;8.40;98.20
9973;DHT22;5027;53.560;10.062;2024-03-08T07:27:50;8.30;98.10
9973;DHT22;5027;53.560;10.062;2024-03-08T07:30:18;8.30;98.10
9973;DHT22;5027;53.560;10.062;2024-03-08T07:33:05;8.40;98.10
9973;DHT22;5027;53.560;10.062;2024-03-08T07:35:33;8.40;98.10
9973;DHT22;5027;53.560;10.062;2024-03-08T07:38:07;8.50;98.10
9973;DHT22;5027;53.560;10.062;2024-03-08T07:40:37;8.50;98.30
9973;DHT22;5027;53.560;10.062;2024-03-08T07:43:07;8.50;97.90
9973;DHT22;5027;53.560;10.062;2024-03-08T07:45:34;8.50;97.90
9973;DHT22;5027;53.560;10.062;2024-03-08T07:48:02;8.50;97.70
9973;DHT22;5027;53.560;10.062;2024-03-08T07:50:29;8.60;97.80
9973;DHT22;5027;53.560;10.062;2024-03-08T07:52:56;8.60;97.60
9973;DHT22;5027;53.560;10.062;2024-03-08T07:55:23;8.60;97.80
9973;DHT22;5027;53.560;10.062;2024-03-08T07:57:51;8.70;97.60
9973;DHT22;5027;53.560;10.062;2024-03-08T08:00:18;8.70;97.80
9973;DHT22;5027;53.560;10.062;2024-03-08T08:02:45;8.70;97.80
9973;DHT22;5027;53.560;10.062;2024-03-08T08:05:12;8.70;97.50
9973;DHT22;5027;53.560;10.062;2024-03-08T08:07:40;8.70;97.60
9973;DHT22;5027;53.560;10.062;2024-03-08T08:10:10;8.80;97.60
9973;DHT22;5027;53.560;10.062;2024-03-08T08:12:45;8.80;97.80
9973;DHT22;5027;53.560;10.062;2024-03-08T08:15:12;8.80;97.50
9973;DHT22;5027;53.560;10.062;2024-03-08T08:17:39;8.80;97.60
9973;DHT22;5027;53.560;10.062;2024-03-08T08:20:06;8.90;97.50
9973;DHT22;5027;53.560;10.062;2024-03-08T08:22:33;8.90;97.70
9973;DHT22;5027;53.560;10.062;2024-03-08T08:25:00;8.90;97.70
9973;DHT22;5027;53.560;10.062;2024-03-08T08:27:26;8.90;97.20
9973;DHT22;5027;53.560;10.062;2024-03-08T08:29:53;8.90;97.70
9973;DHT22;5027;53.560;10.062;2024-03-08T08:32:20;9.00;97.40
9973;DHT22;5027;53.560;10.062;2024-03-08T08:34:47;9.10;97.20
9973;DHT22;5027;53.560;10.062;2024-03-08T08:37:14;9.10;97.20
9973;DHT22;5027;53.560;10.062;2024-03-08T08:39:42;9.10;97.10
9973;DHT22;5027;53.560;10.062;2024-03-08T08:42:09;9.10;97.50
9973;DHT22;5027;53.560;10.062;2024-03-08T08:44:36;9.20;97.50
9973;DHT22;5027;53.560;10.062;2024-03-08T08:47:03;9.20;96.90
9973;DHT22;5027;53.560;10.062;2024-03-08T08:49:38;9.30;97.60
9973;DHT22;5027;53.560;10.062;2024-03-08T08:52:05;9.30;97.30
9973;DHT22;5027;53.560;10.062;2024-03-08T08:54:43;9.30;97.10
9973;DHT22;5027;53.560;10.062;2024-03-08T08:57:15;9.40;97.50
9973;DHT22;5027;53.560;10.062;2024-03-08T08:59:42;9.40;96.60
9973;DHT22;5027;53.560;10.062;2024-03-08T09:02:08;9.50;97.00
9973;DHT22;5027;53.560;10.062;2024-03-08T09:04:38;9.50;97.00
9973;DHT22;5027;53.560;10.062;2024-03-08T09:07:05;9.60;96.90
9973;DHT22;5027;53.560;10.062;2024-03-08T09:09:33;9.70;97.10
9973;DHT22;5027;53.560;10.062;2024-03-08T09:11:59;9.70;97.10
9973;DHT22;5027;53.560;10.062;2024-03-08T09:14:27;9.70;97.10
9973;DHT22;5027;53.560;10.062;2024-03-08T09:16:54;9.80;97.10
9973;DHT22;5027;53.560;10.062;2024-03-08T09:19:21;9.90;96.90
9973;DHT22;5027;53.560;10.062;2024-03-08T09:21:49;10.00;96.20
9973;DHT22;5027;53.560;10.062;2024-03-08T09:24:17;10.10;96.10
9973;DHT22;5027;53.560;10.062;2024-03-08T09:26:44;10.20;95.70
9973;DHT22;5027;53.560;10.062;2024-03-08T09:29:11;10.10;96.10
9973;DHT22;5027;53.560;10.062;2024-03-08T09:31:38;10.10;95.20
9973;DHT22;5027;53.560;10.062;2024-03-08T09:34:04;10.10;95.90
9973;DHT22;5027;53.560;10.062;2024-03-08T09:36:31;10.30;95.60
9973;DHT22;5027;53.560;10.062;2024-03-08T09:38:59;10.20;95.20
9973;DHT22;5027;53.560;10.062;2024-03-08T09:41:27;10.40;95.50
9973;DHT22;5027;53.560;10.062;2024-03-08T09:43:54;10.40;95.30
9973;DHT22;5027;53.560;10.062;2024-03-08T09:46:23;10.40;95.10
9973;DHT22;5027;53.560;10.062;2024-03-08T09:48:50;10.40;94.90
9973;DHT22;5027;53.560;10.062;2024-03-08T09:51:16;10.40;95.10
9973;DHT22;5027;53.560;10.062;2024-03-08T09:53:44;10.60;95.30
9973;DHT22;5027;53.560;10.062;2024-03-08T09:56:11;10.70;95.30
9973;DHT22;5027;53.560;10.062;2024-03-08T09:58:38;10.70;94.70
9973;DHT22;5027;53.560;10.062;2024-03-08T10:01:21;10.80;94.40
9973;DHT22;5027;53.560;10.062;2024-03-08T10:03:48;10.80;94.30
9973;DHT22;5027;53.560;10.062;2024-03-08T10:06:15;10.80;94.00
9973;DHT22;5027;53.560;10.062;2024-03-08T10:08:42;10.90;94.00
9973;DHT22;5027;53.560;10.062;2024-03-08T10:11:11;10.90;93.90
9973;DHT22;5027;53.560;10.062;2024-03-08T10:13:39;10.90;93.60
9973;DHT22;5027;53.560;10.062;2024-03-08T10:16:07;11.10;93.20
9973;DHT22;5027;53.560;10.062;2024-03-08T10:18:34;11.10;93.20
9973;DHT22;5027;53.560;10.062;2024-03-08T10:21:02;11.10;92.70
9973;DHT22;5027;53.560;10.062;2024-03-08T10:23:31;11.20;92.60
9973;DHT22;5027;53.560;10.062;2024-03-08T10:26:13;11.20;92.50
9973;DHT22;5027;53.560;10.062;2024-03-08T10:28:44;11.40;92.80
9973;DHT22;5027;53.560;10.062;2024-03-08T10:31:11;11.60;92.70
9973;DHT22;5027;53.560;10.062;2024-03-08T10:33:40;11.70;92.20
9973;DHT22;5027;53.560;10.062;2024-03-08T10:36:08;11.70;92.40
9973;DHT22;5027;53.560;10.062;2024-03-08T10:38:39;11.80;92.00
9973;DHT22;5027;53.560;10.062;2024-03-08T10:41:07;11.90;92.20
9973;DHT22;5027;53.560;10.062;2024-03-08T10:44:01;12.00;91.50
9973;DHT22;5027;53.560;10.062;2024-03-08T10:49:28;12.20;91.30
9973;DHT22;5027;53.560;10.062;2024-03-08T10:51:57;12.20;91.20
9973;DHT22;5027;53.560;10.062;2024-03-08T10:54:26;12.30;91.00
9973;DHT22;5027;53.560;10.062;2024-03-08T10:56:53;12.40;91.30
9973;DHT22;5027;53.560;10.062;2024-03-08T10:59:22;12.50;91.70
9973;DHT22;5027;53.560;10.062;2024-03-08T11:01:50;12.60;91.40
9973;DHT22;5027;53.560;10.062;2024-03-08T11:04:17;12.70;91.10
9973;DHT22;5027;53.560;10.062;2024-03-08T11:06:51;12.70;90.40
9973;DHT22;5027;53.560;10.062;2024-03-08T11:09:36;12.70;90.30
9973;DHT22;5027;53.560;10.062;2024-03-08T11:14:51;12.80;90.80
9973;DHT22;5027;53.560;10.062;2024-03-08T11:17:45;12.90;90.90
9973;DHT22;5027;53.560;10.062;2024-03-08T11:20:17;12.90;90.60
9973;DHT22;5027;53.560;10.062;2024-03-08T11:22:54;12.90;91.00
9973;DHT22;5027;53.560;10.062;2024-03-08T11:25:39;13.00;91.30
9973;DHT22;5027;53.560;10.062;2024-03-08T11:28:18;13.10;90.70
9973;DHT22;5027;53.560;10.062;2024-03-08T11:33:34;13.10;90.30
9973;DHT22;5027;53.560;10.062;2024-03-08T11:36:11;13.20;89.70
9973;DHT22;5027;53.560;10.062;2024-03-08T11:38:42;13.30;88.60
9973;DHT22;5027;53.560;10.062;2024-03-08T11:41:20;13.40;87.70
9973;DHT22;5027;53.560;10.062;2024-03-08T11:44:26;13.40;87.60
9973;DHT22;5027;53.560;10.062;2024-03-08T11:46:54;13.40;87.70
9973;DHT22;5027;53.560;10.062;2024-03-08T11:49:21;13.60;88.00
9973;DHT22;5027;53.560;10.062;2024-03-08T11:51:51;13.60;90.00
9973;DHT22;5027;53.560;10.062;2024-03-08T11:54:19;13.50;88.60
9973;DHT22;5027;53.560;10.062;2024-03-08T11:56:46;13.50;89.50
9973;DHT22;5027;53.560;10.062;2024-03-08T11:59:14;13.60;87.70
9973;DHT22;5027;53.560;10.062;2024-03-08T12:01:41;13.70;89.30
9973;DHT22;5027;53.560;10.062;2024-03-08T12:04:12;13.70;87.50
9973;DHT22;5027;53.560;10.062;2024-03-08T12:06:40;13.80;89.40
9973;DHT22;5027;53.560;10.062;2024-03-08T12:09:11;14.00;88.20
9973;DHT22;5027;53.560;10.062;2024-03-08T12:11:38;14.00;88.40
9973;DHT22;5027;53.560;10.062;2024-03-08T12:14:06;14.10;85.30
9973;DHT22;5027;53.560;10.062;2024-03-08T12:16:32;14.10;86.60
9973;DHT22;5027;53.560;10.062;2024-03-08T12:19:00;14.10;86.40
9973;DHT22;5027;53.560;10.062;2024-03-08T12:21:27;14.10;87.00
9973;DHT22;5027;53.560;10.062;2024-03-08T12:24:06;14.10;88.30
9973;DHT22;5027;53.560;10.062;2024-03-08T12:26:38;14.10;88.60
9973;DHT22;5027;53.560;10.062;2024-03-08T12:29:37;14.20;87.50
9973;DHT22;5027;53.560;10.062;2024-03-08T12:32:05;14.40;86.80
9973;DHT22;5027;53.560;10.062;2024-03-08T12:34:34;14.50;85.70
9973;DHT22;5027;53.560;10.062;2024-03-08T12:37:01;14.60;84.80
9973;DHT22;5027;53.560;10.062;2024-03-08T12:39:30;14.60;84.50
9973;DHT22;5027;53.560;10.062;2024-03-08T12:41:56;14.50;84.60
9973;DHT22;5027;53.560;10.062;2024-03-08T12:45:00;14.50;85.50
9973;DHT22;5027;53.560;10.062;2024-03-08T12:47:28;14.50;86.60
9973;DHT22;5027;53.560;10.062;2024-03-08T12:49:56;14.60;84.10
9973;DHT22;5027;53.560;10.062;2024-03-08T12:52:23;14.70;85.30
9973;DHT22;5027;53.560;10.062;2024-03-08T12:54:50;14.50;85.40
9973;DHT22;5027;53.560;10.062;2024-03-08T12:57:18;14.50;84.50
9973;DHT22;5027;53.560;10.062;2024-03-08T12:59:44;14.60;85.70
9973;DHT22;5027;53.560;10.062;2024-03-08T13:02:11;14.60;86.40
9973;DHT22;5027;53.560;10.062;2024-03-08T13:04:38;14.70;85.90
9973;DHT22;5027;53.560;10.062;2024-03-08T13:07:05;14.70;86.40
9973;DHT22;5027;53.560;10.062;2024-03-08T13:09:31;14.80;86.10
9973;DHT22;5027;53.560;10.062;2024-03-08T13:11:59;14.90;85.10
9973;DHT22;5027;53.560;10.062;2024-03-08T13:14:27;14.90;84.40
9973;DHT22;5027;53.560;10.062;2024-03-08T13:16:57;14.80;84.00
9973;DHT22;5027;53.560;10.062;2024-03-08T13:19:25;14.70;84.80
9973;DHT22;5027;53.560;10.062;2024-03-08T13:21:54;14.80;84.30
9973;DHT22;5027;53.560;10.062;2024-03-08T13:24:21;14.80;85.00
9973;DHT22;5027;53.560;10.062;2024-03-08T13:26:48;14.80;84.20
9973;DHT22;5027;53.560;10.062;2024-03-08T13:29:16;15.00;82.50
9973;DHT22;5027;53.560;10.062;2024-03-08T13:31:45;15.00;82.40
9973;DHT22;5027;53.560;10.062;2024-03-08T13:34:13;14.90;83.20
9973;DHT22;5027;53.560;10.062;2024-03-08T13:36:41;14.90;82.60
9973;DHT22;5027;53.560;10.062;2024-03-08T13:39:11;15.00;83.30
9973;DHT22;5027;53.560;10.062;2024-03-08T13:41:42;15.20;80.70
9973;DHT22;5027;53.560;10.062;2024-03-08T13:44:08;15.10;80.70
9973;DHT22;5027;53.560;10.062;2024-03-08T13:46:35;15.10;82.10
9973;DHT22;5027;53.560;10.062;2024-03-08T13:49:06;15.10;81.60
9973;DHT22;5027;53.560;10.062;2024-03-08T13:51:35;15.00;82.20
9973;DHT22;5027;53.560;10.062;2024-03-08T13:54:02;15.00;82.70
9973;DHT22;5027;53.560;10.062;2024-03-08T13:56:28;15.00;82.90
9973;DHT22;5027;53.560;10.062;2024-03-08T13:58:58;14.90;82.80
9973;DHT22;5027;53.560;10.062;2024-03-08T14:01:25;15.00;81.10
9973;DHT22;5027;53.560;10.062;2024-03-08T14:03:52;15.00;81.70
9973;DHT22;5027;53.560;10.062;2024-03-08T14:06:18;15.20;80.00
9973;DHT22;5027;53.560;10.062;2024-03-08T14:08:49;15.20;78.20
9973;DHT22;5027;53.560;10.062;2024-03-08T14:11:16;15.30;77.50
9973;DHT22;5027;53.560;10.062;2024-03-08T14:13:45;15.30;78.50
9973;DHT22;5027;53.560;10.062;2024-03-08T14:16:13;15.30;78.40
9973;DHT22;5027;53.560;10.062;2024-03-08T14:18:40;15.20;77.40
9973;DHT22;5027;53.560;10.062;2024-03-08T14:21:06;15.10;79.60
9973;DHT22;5027;53.560;10.062;2024-03-08T14:23:35;15.20;77.80
9973;DHT22;5027;53.560;10.062;2024-03-08T14:26:05;15.20;77.90
9973;DHT22;5027;53.560;10.062;2024-03-08T14:28:35;15.20;79.70
9973;DHT22;5027;53.560;10.062;2024-03-08T14:31:02;15.10;80.70
9973;DHT22;5027;53.560;10.062;2024-03-08T14:33:33;15.10;80.50
9973;DHT22;5027;53.560;10.062;2024-03-08T14:36:00;15.00;80.40
9973;DHT22;5027;53.560;10.062;2024-03-08T14:38:27;15.00;80.70
9973;DHT22;5027;53.560;10.062;2024-03-08T14:40:54;15.00;80.10
9973;DHT22;5027;53.560;10.062;2024-03-08T14:43:22;15.00;79.20
9973;DHT22;5027;53.560;10.062;2024-03-08T14:45:49;15.00;80.50
9973;DHT22;5027;53.560;10.062;2024-03-08T14:48:17;15.00;79.00
9973;DHT22;5027;53.560;10.062;2024-03-08T14:50:44;14.90;80.10
9973;DHT22;5027;53.560;10.062;2024-03-08T14:53:12;14.80;79.50
9973;DHT22;5027;53.560;10.062;2024-03-08T14:55:42;14.80;78.70
9973;DHT22;5027;53.560;10.062;2024-03-08T14:58:10;14.80;79.10
9973;DHT22;5027;53.560;10.062;2024-03-08T15:00:37;14.80;78.20
9973;DHT22;5027;53.560;10.062;2024-03-08T15:03:06;14.70;79.00
9973;DHT22;5027;53.560;10.062;2024-03-08T15:05:34;14.70;78.10
9973;DHT22;5027;53.560;10.062;2024-03-08T15:08:05;14.70;78.20
9973;DHT22;5027;53.560;10.062;2024-03-08T15:10:37;14.70;78.90
9973;DHT22;5027;53.560;10.062;2024-03-08T15:13:07;14.70;77.90
9973;DHT22;5027;53.560;10.062;2024-03-08T15:15:40;14.60;78.10
9973;DHT22;5027;53.560;10.062;2024-03-08T15:18:09;14.60;78.60
9973;DHT22;5027;53.560;10.062;2024-03-08T15:20:38;14.60;79.00
9973;DHT22;5027;53.560;10.062;2024-03-08T15:23:04;14.50;79.00
9973;DHT22;5027;53.560;10.062;2024-03-08T15:25:32;14.60;79.40
9973;DHT22;5027;53.560;10.062;2024-03-08T15:28:01;14.60;78.40
9973;DHT22;5027;53.560;10.062;2024-03-08T15:30:30;14.60;78.20
9973;DHT22;5027;53.560;10.062;2024-03-08T15:32:59;14.70;77.20
9973;DHT22;5027;53.560;10.062;2024-03-08T15:35:30;14.70;78.30
9973;DHT22;5027;53.560;10.062;2024-03-08T15:38:01;14.70;77.80
9973;DHT22;5027;53.560;10.062;2024-03-08T15:40:28;14.70;77.90
9973;DHT22;5027;53.560;10.062;2024-03-08T15:42:57;14.70;77.00
9973;DHT22;5027;53.560;10.062;2024-03-08T15:45:25;14.60;77.90
9973;DHT22;5027;53.560;10.062;2024-03-08T15:47:54;14.40;77.40
9973;DHT22;5027;53.560;10.062;2024-03-08T15:50:21;14.40;77.00
9973;DHT22;5027;53.560;10.062;2024-03-08T15:52:51;14.40;77.60
9973;DHT22;5027;53.560;10.062;2024-03-08T15:55:20;14.30;78.00
9973;DHT22;5027;53.560;10.062;2024-03-08T15:57:50;14.30;78.80
9973;DHT22;5027;53.560;10.062;2024-03-08T16:00:19;14.30;79.90
9973;DHT22;5027;53.560;10.062;2024-03-08T16:03:03;14.30;79.70
9973;DHT22;5027;53.560;10.062;2024-03-08T16:05:33;14.20;80.50
9973;DHT22;5027;53.560;10.062;2024-03-08T16:08:01;14.20;80.30
9973;DHT22;5027;53.560;10.062;2024-03-08T16:10:28;14.20;81.10
9973;DHT22;5027;53.560;10.062;2024-03-08T16:13:00;14.10;81.90